ERU58 KPRC-ZZZZ
Flight info
| Callsign | ERU58 |
|---|---|
| Flight time | N/A |
| Altitude | 7500 |
| Route | DCT |
| Aircraft | C172/L-SGB2RS/C |
Departure
| Time | 2026-05-07 19:32 |
|---|---|
| Airport | Prescott Regional Airport - Ernest A. Love Field (KPRC) |
Arrival
| Time | N/A |
|---|---|
| Airport | ZZZZ |
| Time | Latitude | Longitude | Altitude | Speed | Heading |
|---|---|---|---|---|---|
| 2026-05-07 19:17 | 34.64799 | -112.42080 | 5029 ft | 0 kts | 319° |
| 2026-05-07 19:19 | 34.64804 | -112.42081 | 5028 ft | 2 kts | 4° |
| 2026-05-07 19:19 | 34.64821 | -112.42069 | 5027 ft | 3 kts | 14° |
| 2026-05-07 19:20 | 34.64846 | -112.42088 | 5025 ft | 7 kts | 316° |
| 2026-05-07 19:20 | 34.64860 | -112.42130 | 5025 ft | 5 kts | 234° |
| 2026-05-07 19:20 | 34.64832 | -112.42166 | 5028 ft | 3 kts | 226° |
| 2026-05-07 19:20 | 34.64831 | -112.42167 | 5028 ft | 0 kts | 226° |
| 2026-05-07 19:21 | 34.64843 | -112.42212 | 5028 ft | 10 kts | 318° |
| 2026-05-07 19:22 | 34.64906 | -112.42282 | 5025 ft | 14 kts | 317° |
| 2026-05-07 19:22 | 34.64962 | -112.42290 | 5022 ft | 12 kts | 41° |
| 2026-05-07 19:22 | 34.65049 | -112.42197 | 5021 ft | 21 kts | 39° |
| 2026-05-07 19:22 | 34.65185 | -112.42058 | 5014 ft | 29 kts | 35° |
| 2026-05-07 19:23 | 34.65329 | -112.41901 | 5006 ft | 27 kts | 42° |
| 2026-05-07 19:23 | 34.65463 | -112.41756 | 4998 ft | 24 kts | 42° |
| 2026-05-07 19:23 | 34.65584 | -112.41633 | 4993 ft | 22 kts | 45° |
| 2026-05-07 19:23 | 34.65689 | -112.41516 | 4989 ft | 19 kts | 46° |
| 2026-05-07 19:24 | 34.65784 | -112.41416 | 4983 ft | 18 kts | 47° |
| 2026-05-07 19:24 | 34.65864 | -112.41274 | 4976 ft | 22 kts | 62° |
| 2026-05-07 19:24 | 34.65972 | -112.41149 | 4968 ft | 21 kts | 39° |
| 2026-05-07 19:24 | 34.66084 | -112.41031 | 4960 ft | 21 kts | 44° |
| 2026-05-07 19:25 | 34.66160 | -112.40982 | 4957 ft | 7 kts | 269° |
| 2026-05-07 19:25 | 34.66159 | -112.40992 | 4958 ft | 0 kts | 252° |
| 2026-05-07 19:30 | 34.66156 | -112.41001 | 4956 ft | 4 kts | 248° |
| 2026-05-07 19:30 | 34.66164 | -112.41067 | 4957 ft | 7 kts | 312° |
| 2026-05-07 19:30 | 34.66211 | -112.41128 | 4959 ft | 10 kts | 302° |
| 2026-05-07 19:31 | 34.66185 | -112.41172 | 4960 ft | 21 kts | 224° |
| 2026-05-07 19:31 | 34.65967 | -112.41401 | 4976 ft | 60 kts | 218° |
| 2026-05-07 19:31 | 34.65571 | -112.41817 | 5011 ft | 87 kts | 222° |
| 2026-05-07 19:31 | 34.65107 | -112.42315 | 5132 ft | 92 kts | 225° |
| 2026-05-07 19:32 | 34.64612 | -112.42865 | 5257 ft | 100 kts | 224° |
| 2026-05-07 19:32 | 34.64104 | -112.43399 | 5553 ft | 93 kts | 224° |
| 2026-05-07 19:32 | 34.63602 | -112.43895 | 5709 ft | 93 kts | 223° |
| 2026-05-07 19:32 | 34.63077 | -112.44342 | 5893 ft | 90 kts | 195° |
| 2026-05-07 19:33 | 34.62538 | -112.44050 | 6016 ft | 92 kts | 128° |
| 2026-05-07 19:33 | 34.62386 | -112.43591 | 6124 ft | 91 kts | 87° |
| 2026-05-07 19:33 | 34.62834 | -112.42719 | 6147 ft | 98 kts | 46° |
| 2026-05-07 19:33 | 34.63312 | -112.42094 | 6124 ft | 104 kts | 46° |
| 2026-05-07 19:34 | 34.63820 | -112.41454 | 6133 ft | 105 kts | 43° |
| 2026-05-07 19:34 | 34.64333 | -112.40801 | 6068 ft | 109 kts | 45° |
| 2026-05-07 19:34 | 34.64848 | -112.40129 | 6070 ft | 108 kts | 43° |
| 2026-05-07 19:34 | 34.65381 | -112.39509 | 6079 ft | 97 kts | 40° |
| 2026-05-07 19:35 | 34.65691 | -112.39162 | 6029 ft | 88 kts | 40° |
| 2026-05-07 19:35 | 34.66160 | -112.38769 | 5949 ft | 78 kts | 2° |
| 2026-05-07 19:35 | 34.66626 | -112.39110 | 5778 ft | 87 kts | 313° |
| 2026-05-07 19:35 | 34.66957 | -112.39702 | 5504 ft | 86 kts | 289° |
| 2026-05-07 19:36 | 34.66732 | -112.40587 | 5168 ft | 83 kts | 224° |
| 2026-05-07 19:36 | 34.66299 | -112.41041 | 5036 ft | 82 kts | 222° |
| 2026-05-07 19:36 | 34.66018 | -112.41348 | 4984 ft | 78 kts | 220° |
| 2026-05-07 19:36 | 34.65687 | -112.41697 | 4992 ft | 53 kts | 223° |
| 2026-05-07 19:37 | 34.65344 | -112.42061 | 5012 ft | 79 kts | 219° |
| 2026-05-07 19:37 | 34.64901 | -112.42523 | 5099 ft | 86 kts | 225° |
| 2026-05-07 19:37 | 34.64464 | -112.43035 | 5255 ft | 89 kts | 228° |
| 2026-05-07 19:37 | 34.64028 | -112.43573 | 5447 ft | 90 kts | 227° |
| 2026-05-07 19:38 | 34.63366 | -112.44233 | 5608 ft | 96 kts | 218° |
| 2026-05-07 19:38 | 34.63014 | -112.44552 | 5736 ft | 92 kts | 222° |
| 2026-05-07 19:38 | 34.62479 | -112.44948 | 5942 ft | 91 kts | 186° |
| 2026-05-07 19:38 | 34.61936 | -112.44617 | 6043 ft | 94 kts | 131° |
| 2026-05-07 19:39 | 34.61744 | -112.43925 | 6130 ft | 92 kts | 76° |
| 2026-05-07 19:39 | 34.62107 | -112.43293 | 6137 ft | 98 kts | 41° |
| 2026-05-07 19:39 | 34.62633 | -112.42726 | 6139 ft | 105 kts | 40° |
| 2026-05-07 19:39 | 34.63198 | -112.42142 | 6128 ft | 107 kts | 38° |
| 2026-05-07 19:40 | 34.63765 | -112.41545 | 6105 ft | 109 kts | 38° |
| 2026-05-07 19:40 | 34.64336 | -112.40951 | 6080 ft | 107 kts | 39° |
| 2026-05-07 19:40 | 34.64878 | -112.40340 | 6055 ft | 108 kts | 43° |
| 2026-05-07 19:40 | 34.65383 | -112.39726 | 6025 ft | 88 kts | 41° |
| 2026-05-07 19:41 | 34.65792 | -112.39216 | 5909 ft | 85 kts | 45° |
| 2026-05-07 19:41 | 34.66212 | -112.38756 | 5854 ft | 79 kts | 24° |
| 2026-05-07 19:41 | 34.66706 | -112.38882 | 5743 ft | 83 kts | 314° |
| 2026-05-07 19:41 | 34.67028 | -112.39446 | 5626 ft | 81 kts | 311° |
| 2026-05-07 19:42 | 34.67071 | -112.40085 | 5455 ft | 84 kts | 246° |
| 2026-05-07 19:42 | 34.66688 | -112.40641 | 5226 ft | 89 kts | 223° |
| 2026-05-07 19:42 | 34.66231 | -112.41118 | 5008 ft | 82 kts | 223° |
| 2026-05-07 19:42 | 34.65869 | -112.41500 | 4983 ft | 53 kts | 225° |
| 2026-05-07 19:43 | 34.65719 | -112.41634 | 4990 ft | 12 kts | 140° |
| 2026-05-07 19:43 | 34.65691 | -112.41551 | 4989 ft | 6 kts | 105° |
| 2026-05-07 19:43 | 34.65690 | -112.41546 | 4989 ft | 1 kts | 109° |
| 2026-05-07 19:44 | 34.65689 | -112.41532 | 4989 ft | 1 kts | 71° |
| 2026-05-07 19:44 | 34.65716 | -112.41488 | 4988 ft | 13 kts | 44° |
| 2026-05-07 19:44 | 34.65811 | -112.41382 | 4981 ft | 21 kts | 51° |
| 2026-05-07 19:44 | 34.65891 | -112.41238 | 4974 ft | 20 kts | 41° |
| 2026-05-07 19:45 | 34.65995 | -112.41126 | 4966 ft | 20 kts | 41° |
| 2026-05-07 19:45 | 34.66097 | -112.41018 | 4959 ft | 17 kts | 43° |
| 2026-05-07 19:45 | 34.66150 | -112.40979 | 4959 ft | 6 kts | 316° |
| 2026-05-07 19:45 | 34.66159 | -112.41000 | 4959 ft | 0 kts | 261° |
| 2026-05-07 19:47 | 34.66159 | -112.41001 | 4959 ft | 0 kts | 259° |
| 2026-05-07 19:50 | 34.66159 | -112.41000 | 4959 ft | 0 kts | 260° |
| 2026-05-07 19:55 | 34.66160 | -112.41000 | 4959 ft | 0 kts | 260° |
| 2026-05-07 20:01 | 34.66160 | -112.40999 | 4986 ft | 0 kts | 260° |
| 2026-05-07 20:21 | 34.66160 | -112.40998 | 4959 ft | 0 kts | 260° |
| 2026-05-07 20:42 | 34.66165 | -112.41064 | 4958 ft | 0 kts | 296° |
| 2026-05-07 20:43 | 34.66166 | -112.41068 | 4958 ft | 4 kts | 297° |
| 2026-05-07 20:43 | 34.66205 | -112.41153 | 4959 ft | 10 kts | 249° |
| 2026-05-07 20:43 | 34.66197 | -112.41159 | 4960 ft | 0 kts | 222° |
| 2026-05-07 20:43 | 34.66159 | -112.41198 | 4961 ft | 25 kts | 223° |
| 2026-05-07 20:44 | 34.65933 | -112.41438 | 4978 ft | 60 kts | 221° |
| 2026-05-07 20:44 | 34.65563 | -112.41838 | 5029 ft | 78 kts | 224° |
| 2026-05-07 20:44 | 34.65145 | -112.42278 | 5163 ft | 80 kts | 221° |
| 2026-05-07 20:44 | 34.64718 | -112.42745 | 5294 ft | 86 kts | 223° |
| 2026-05-07 20:45 | 34.64273 | -112.43230 | 5461 ft | 88 kts | 223° |
| 2026-05-07 20:45 | 34.63803 | -112.43720 | 5625 ft | 90 kts | 223° |
| 2026-05-07 20:45 | 34.63305 | -112.44217 | 5752 ft | 95 kts | 221° |
| 2026-05-07 20:45 | 34.62790 | -112.44720 | 5903 ft | 96 kts | 219° |
| 2026-05-07 20:46 | 34.62259 | -112.45221 | 6078 ft | 97 kts | 221° |
| 2026-05-07 20:46 | 34.61748 | -112.45766 | 6194 ft | 98 kts | 224° |
| 2026-05-07 20:46 | 34.61204 | -112.46263 | 6347 ft | 98 kts | 221° |
| 2026-05-07 20:46 | 34.60657 | -112.46768 | 6485 ft | 99 kts | 219° |
| 2026-05-07 20:47 | 34.60119 | -112.47281 | 6646 ft | 98 kts | 221° |
| 2026-05-07 20:47 | 34.59497 | -112.47529 | 6768 ft | 101 kts | 163° |
| 2026-05-07 20:47 | 34.59148 | -112.46887 | 6923 ft | 96 kts | 79° |
| 2026-05-07 20:47 | 34.59321 | -112.46103 | 7087 ft | 96 kts | 73° |
| 2026-05-07 20:48 | 34.59479 | -112.45318 | 7272 ft | 96 kts | 73° |
| 2026-05-07 20:48 | 34.59642 | -112.44528 | 7479 ft | 96 kts | 73° |
| 2026-05-07 20:48 | 34.59804 | -112.43732 | 7702 ft | 98 kts | 73° |
| 2026-05-07 20:48 | 34.59964 | -112.42928 | 7875 ft | 98 kts | 72° |
| 2026-05-07 20:49 | 34.60125 | -112.42123 | 8072 ft | 98 kts | 73° |
| 2026-05-07 20:49 | 34.60281 | -112.41325 | 8236 ft | 98 kts | 73° |
| 2026-05-07 20:49 | 34.60539 | -112.40578 | 8390 ft | 95 kts | 36° |
| 2026-05-07 20:49 | 34.61073 | -112.40144 | 8467 ft | 94 kts | 50° |
| 2026-05-07 20:50 | 34.61362 | -112.39401 | 8470 ft | 101 kts | 63° |
| 2026-05-07 20:50 | 34.61655 | -112.38612 | 8472 ft | 104 kts | 64° |
| 2026-05-07 20:50 | 34.61933 | -112.37799 | 8470 ft | 105 kts | 64° |
| 2026-05-07 20:50 | 34.62208 | -112.36977 | 8475 ft | 106 kts | 65° |
| 2026-05-07 20:51 | 34.62480 | -112.36153 | 8477 ft | 106 kts | 66° |
| 2026-05-07 20:51 | 34.62759 | -112.35300 | 8476 ft | 108 kts | 64° |
| 2026-05-07 20:51 | 34.63030 | -112.34465 | 8478 ft | 108 kts | 65° |
| 2026-05-07 20:51 | 34.63308 | -112.33613 | 8480 ft | 109 kts | 65° |
| 2026-05-07 20:52 | 34.63589 | -112.32749 | 8480 ft | 111 kts | 65° |
| 2026-05-07 20:52 | 34.63873 | -112.31865 | 8484 ft | 113 kts | 66° |
| 2026-05-07 20:52 | 34.64163 | -112.30967 | 8482 ft | 114 kts | 66° |
| 2026-05-07 20:52 | 34.64454 | -112.30070 | 8475 ft | 115 kts | 65° |
| 2026-05-07 20:53 | 34.64742 | -112.29178 | 8474 ft | 115 kts | 66° |
| 2026-05-07 20:53 | 34.65032 | -112.28280 | 8464 ft | 114 kts | 65° |
| 2026-05-07 20:53 | 34.65324 | -112.27373 | 8458 ft | 116 kts | 66° |
| 2026-05-07 20:53 | 34.65623 | -112.26455 | 8449 ft | 117 kts | 66° |
| 2026-05-07 20:54 | 34.65919 | -112.25536 | 8444 ft | 118 kts | 65° |
| 2026-05-07 20:54 | 34.66222 | -112.24597 | 8436 ft | 119 kts | 66° |
| 2026-05-07 20:54 | 34.66526 | -112.23674 | 8428 ft | 116 kts | 61° |
| 2026-05-07 20:54 | 34.66963 | -112.22845 | 8429 ft | 118 kts | 52° |
| 2026-05-07 20:55 | 34.67420 | -112.22027 | 8418 ft | 116 kts | 53° |
| 2026-05-07 20:55 | 34.67871 | -112.21216 | 8420 ft | 117 kts | 53° |
| 2026-05-07 20:55 | 34.68338 | -112.20385 | 8413 ft | 125 kts | 53° |
| 2026-05-07 20:55 | 34.68836 | -112.19505 | 8392 ft | 125 kts | 51° |
| 2026-05-07 20:56 | 34.69339 | -112.18616 | 8379 ft | 130 kts | 53° |
| 2026-05-07 20:56 | 34.69810 | -112.17770 | 8388 ft | 113 kts | 52° |
| 2026-05-07 20:56 | 34.70233 | -112.16993 | 8393 ft | 111 kts | 51° |
| 2026-05-07 20:56 | 34.70667 | -112.16203 | 8409 ft | 113 kts | 53° |
| 2026-05-07 20:57 | 34.71133 | -112.15379 | 8369 ft | 116 kts | 53° |
| 2026-05-07 20:57 | 34.71596 | -112.14572 | 8354 ft | 116 kts | 54° |
| 2026-05-07 20:57 | 34.72041 | -112.13782 | 8353 ft | 111 kts | 53° |
| 2026-05-07 20:57 | 34.72389 | -112.12948 | 8350 ft | 110 kts | 65° |
| 2026-05-07 20:58 | 34.72675 | -112.12112 | 8347 ft | 109 kts | 63° |
| 2026-05-07 20:58 | 34.72988 | -112.11256 | 8343 ft | 112 kts | 63° |
| 2026-05-07 20:58 | 34.73298 | -112.10392 | 8360 ft | 112 kts | 64° |
| 2026-05-07 20:58 | 34.73620 | -112.09506 | 8338 ft | 118 kts | 63° |
| 2026-05-07 20:59 | 34.73967 | -112.08555 | 8324 ft | 124 kts | 63° |
| 2026-05-07 20:59 | 34.74312 | -112.07621 | 8340 ft | 121 kts | 63° |
| 2026-05-07 20:59 | 34.74655 | -112.06696 | 8336 ft | 119 kts | 63° |
| 2026-05-07 20:59 | 34.74991 | -112.05782 | 8343 ft | 117 kts | 63° |
| 2026-05-07 21:00 | 34.75316 | -112.04893 | 8350 ft | 116 kts | 63° |
| 2026-05-07 21:00 | 34.75646 | -112.04003 | 8353 ft | 116 kts | 63° |
| 2026-05-07 21:00 | 34.75973 | -112.03109 | 8362 ft | 117 kts | 64° |
| 2026-05-07 21:00 | 34.76308 | -112.02199 | 8355 ft | 118 kts | 64° |
| 2026-05-07 21:01 | 34.76642 | -112.01290 | 8363 ft | 117 kts | 63° |
| 2026-05-07 21:01 | 34.76969 | -112.00396 | 8372 ft | 115 kts | 62° |
| 2026-05-07 21:01 | 34.77292 | -111.99522 | 8380 ft | 111 kts | 63° |
| 2026-05-07 21:01 | 34.77609 | -111.98669 | 8393 ft | 111 kts | 63° |
| 2026-05-07 21:02 | 34.77921 | -111.97811 | 8392 ft | 111 kts | 64° |
| 2026-05-07 21:02 | 34.78229 | -111.96973 | 8399 ft | 109 kts | 63° |
| 2026-05-07 21:02 | 34.78537 | -111.96132 | 8393 ft | 109 kts | 64° |
| 2026-05-07 21:02 | 34.78845 | -111.95293 | 8398 ft | 109 kts | 64° |
| 2026-05-07 21:03 | 34.79154 | -111.94452 | 8405 ft | 109 kts | 64° |
| 2026-05-07 21:03 | 34.79464 | -111.93606 | 8410 ft | 110 kts | 64° |
| 2026-05-07 21:03 | 34.79778 | -111.92752 | 8415 ft | 111 kts | 63° |
| 2026-05-07 21:03 | 34.80095 | -111.91889 | 8416 ft | 112 kts | 64° |
| 2026-05-07 21:04 | 34.80411 | -111.91021 | 8427 ft | 113 kts | 64° |
| 2026-05-07 21:04 | 34.80730 | -111.90147 | 8429 ft | 115 kts | 64° |
| 2026-05-07 21:04 | 34.81055 | -111.89256 | 8434 ft | 114 kts | 64° |
| 2026-05-07 21:04 | 34.81382 | -111.88375 | 8435 ft | 115 kts | 64° |
| 2026-05-07 21:05 | 34.81581 | -111.87442 | 8432 ft | 118 kts | 96° |
| 2026-05-07 21:05 | 34.81187 | -111.86568 | 8433 ft | 122 kts | 137° |
| 2026-05-07 21:05 | 34.80405 | -111.86224 | 8434 ft | 123 kts | 181° |
| 2026-05-07 21:05 | 34.79614 | -111.86541 | 8426 ft | 119 kts | 206° |
| 2026-05-07 21:06 | 34.78861 | -111.86962 | 8422 ft | 120 kts | 205° |
| 2026-05-07 21:06 | 34.78090 | -111.87366 | 8418 ft | 121 kts | 205° |
| 2026-05-07 21:06 | 34.77349 | -111.87814 | 8416 ft | 121 kts | 219° |
| 2026-05-07 21:06 | 34.76948 | -111.88695 | 8409 ft | 122 kts | 265° |
| 2026-05-07 21:07 | 34.77128 | -111.89663 | 8401 ft | 118 kts | 306° |
| 2026-05-07 21:07 | 34.77752 | -111.90230 | 8401 ft | 111 kts | 343° |
| 2026-05-07 21:07 | 34.78511 | -111.90199 | 8414 ft | 112 kts | 19° |
| 2026-05-07 21:07 | 34.79232 | -111.89806 | 8416 ft | 115 kts | 22° |
| 2026-05-07 21:08 | 34.79964 | -111.89428 | 8416 ft | 114 kts | 22° |
| 2026-05-07 21:08 | 34.80685 | -111.89045 | 8429 ft | 114 kts | 23° |
| 2026-05-07 21:08 | 34.81408 | -111.88664 | 8424 ft | 115 kts | 22° |
| 2026-05-07 21:08 | 34.82138 | -111.88278 | 8425 ft | 115 kts | 22° |
| 2026-05-07 21:09 | 34.82865 | -111.87897 | 8425 ft | 113 kts | 22° |
| 2026-05-07 21:09 | 34.83585 | -111.87515 | 8425 ft | 112 kts | 22° |
| 2026-05-07 21:09 | 34.84302 | -111.87136 | 8425 ft | 113 kts | 22° |
| 2026-05-07 21:09 | 34.85019 | -111.86753 | 8422 ft | 112 kts | 27° |
| 2026-05-07 21:10 | 34.85485 | -111.86024 | 8420 ft | 112 kts | 71° |
| 2026-05-07 21:10 | 34.85472 | -111.85086 | 8425 ft | 114 kts | 108° |
| 2026-05-07 21:10 | 34.84973 | -111.84358 | 8426 ft | 116 kts | 148° |
| 2026-05-07 21:10 | 34.84190 | -111.84178 | 8418 ft | 117 kts | 190° |
| 2026-05-07 21:11 | 34.83436 | -111.84544 | 8422 ft | 117 kts | 205° |
| 2026-05-07 21:11 | 34.82702 | -111.84936 | 8427 ft | 115 kts | 204° |
| 2026-05-07 21:11 | 34.81209 | -111.85721 | 8425 ft | 118 kts | 205° |
| 2026-05-07 21:12 | 34.80453 | -111.86117 | 8431 ft | 119 kts | 203° |
| 2026-05-07 21:12 | 34.79697 | -111.86514 | 8421 ft | 117 kts | 204° |
| 2026-05-07 21:12 | 34.78949 | -111.86916 | 8422 ft | 119 kts | 205° |
| 2026-05-07 21:12 | 34.78190 | -111.87317 | 8419 ft | 121 kts | 204° |
| 2026-05-07 21:13 | 34.77434 | -111.87741 | 8424 ft | 120 kts | 214° |
| 2026-05-07 21:13 | 34.76968 | -111.88546 | 8413 ft | 122 kts | 258° |
| 2026-05-07 21:13 | 34.77063 | -111.89533 | 8412 ft | 118 kts | 298° |
| 2026-05-07 21:13 | 34.77640 | -111.90183 | 8407 ft | 111 kts | 338° |
| 2026-05-07 21:14 | 34.78394 | -111.90244 | 8415 ft | 112 kts | 14° |
| 2026-05-07 21:14 | 34.79117 | -111.89866 | 8421 ft | 115 kts | 22° |
| 2026-05-07 21:14 | 34.79850 | -111.89486 | 8422 ft | 115 kts | 22° |
| 2026-05-07 21:14 | 34.80574 | -111.89104 | 8428 ft | 114 kts | 22° |
| 2026-05-07 21:15 | 34.81306 | -111.88717 | 8428 ft | 115 kts | 22° |
| 2026-05-07 21:15 | 34.82038 | -111.88331 | 8427 ft | 114 kts | 23° |
| 2026-05-07 21:15 | 34.82763 | -111.87949 | 8424 ft | 113 kts | 22° |
| 2026-05-07 21:15 | 34.83475 | -111.87573 | 8424 ft | 113 kts | 23° |
| 2026-05-07 21:16 | 34.84192 | -111.87195 | 8425 ft | 113 kts | 22° |
| 2026-05-07 21:16 | 34.84911 | -111.86810 | 8425 ft | 112 kts | 26° |
| 2026-05-07 21:16 | 34.85438 | -111.86142 | 8425 ft | 112 kts | 65° |
| 2026-05-07 21:16 | 34.85507 | -111.85204 | 8426 ft | 113 kts | 96° |
| 2026-05-07 21:17 | 34.85400 | -111.84261 | 8422 ft | 112 kts | 94° |
| 2026-05-07 21:17 | 34.85309 | -111.83315 | 8425 ft | 114 kts | 95° |
| 2026-05-07 21:17 | 34.85213 | -111.82336 | 8192 ft | 117 kts | 91° |
| 2026-05-07 21:17 | 34.85538 | -111.81481 | 7947 ft | 116 kts | 33° |
| 2026-05-07 21:18 | 34.86303 | -111.81269 | 7711 ft | 116 kts | 5° |
| 2026-05-07 21:18 | 34.87110 | -111.81158 | 7479 ft | 118 kts | 7° |
| 2026-05-07 21:18 | 34.87930 | -111.81079 | 7239 ft | 118 kts | 353° |
| 2026-05-07 21:18 | 34.88549 | -111.81661 | 6994 ft | 118 kts | 292° |
| 2026-05-07 21:19 | 34.88408 | -111.82604 | 6769 ft | 120 kts | 229° |
| 2026-05-07 21:19 | 34.87649 | -111.82905 | 6535 ft | 120 kts | 167° |
| 2026-05-07 21:19 | 34.86925 | -111.82424 | 6298 ft | 119 kts | 147° |
| 2026-05-07 21:19 | 34.86221 | -111.81881 | 6062 ft | 120 kts | 142° |
| 2026-05-07 21:20 | 34.85715 | -111.81098 | 5820 ft | 120 kts | 120° |
| 2026-05-07 21:20 | 34.85274 | -111.80265 | 5740 ft | 111 kts | 123° |
| 2026-05-07 21:20 | 34.84862 | -111.79523 | 5798 ft | 104 kts | 125° |
| 2026-05-07 21:20 | 34.84459 | -111.78819 | 5836 ft | 101 kts | 121° |
| 2026-05-07 21:21 | 34.84416 | -111.78007 | 5851 ft | 99 kts | 60° |
| 2026-05-07 21:21 | 34.84824 | -111.77323 | 5695 ft | 100 kts | 50° |
| 2026-05-07 21:21 | 34.85242 | -111.76721 | 5542 ft | 91 kts | 45° |
| 2026-05-07 21:21 | 34.85704 | -111.76227 | 5404 ft | 87 kts | 19° |
| 2026-05-07 21:22 | 34.86238 | -111.76405 | 5322 ft | 80 kts | 307° |
| 2026-05-07 21:22 | 34.86400 | -111.76984 | 5340 ft | 81 kts | 250° |
| 2026-05-07 21:22 | 34.85952 | -111.77483 | 5111 ft | 91 kts | 219° |
| 2026-05-07 21:22 | 34.85547 | -111.77975 | 4974 ft | 78 kts | 228° |
| 2026-05-07 21:23 | 34.85182 | -111.78438 | 4826 ft | 69 kts | 231° |
| 2026-05-07 21:23 | 34.84903 | -111.78787 | 4786 ft | 45 kts | 223° |
| 2026-05-07 21:23 | 34.84783 | -111.78953 | 4776 ft | 10 kts | 274° |
| 2026-05-07 21:23 | 34.84816 | -111.78997 | 4777 ft | 5 kts | 322° |
| 2026-05-07 21:24 | 34.84845 | -111.78981 | 4779 ft | 7 kts | 49° |
| 2026-05-07 21:24 | 34.84901 | -111.78911 | 4784 ft | 17 kts | 47° |
| 2026-05-07 21:24 | 34.84980 | -111.78808 | 4789 ft | 14 kts | 51° |
| 2026-05-07 21:24 | 34.85027 | -111.78749 | 4794 ft | 8 kts | 47° |
| 2026-05-07 21:25 | 34.85071 | -111.78696 | 4799 ft | 12 kts | 44° |
| 2026-05-07 21:25 | 34.85149 | -111.78599 | 4817 ft | 16 kts | 45° |
| 2026-05-07 21:25 | 34.85205 | -111.78531 | 4814 ft | 7 kts | 45° |
| 2026-05-07 21:25 | 34.85236 | -111.78490 | 4825 ft | 6 kts | 44° |
| 2026-05-07 21:26 | 34.85279 | -111.78437 | 4824 ft | 14 kts | 45° |
| 2026-05-07 21:26 | 34.85350 | -111.78347 | 4835 ft | 7 kts | 46° |
| 2026-05-07 21:26 | 34.85357 | -111.78315 | 4831 ft | 4 kts | 118° |
| 2026-05-07 21:26 | 34.85325 | -111.78279 | 4834 ft | 10 kts | 157° |
| 2026-05-07 21:27 | 34.85263 | -111.78341 | 4827 ft | 25 kts | 225° |
| 2026-05-07 21:27 | 34.85033 | -111.78626 | 4802 ft | 68 kts | 227° |
| 2026-05-07 21:27 | 34.84655 | -111.79100 | 4836 ft | 83 kts | 231° |
| 2026-05-07 21:27 | 34.84255 | -111.79609 | 5000 ft | 83 kts | 229° |
| 2026-05-07 21:28 | 34.83834 | -111.80133 | 5166 ft | 89 kts | 228° |
| 2026-05-07 21:28 | 34.83400 | -111.80640 | 5388 ft | 86 kts | 226° |
| 2026-05-07 21:28 | 34.82952 | -111.81135 | 5534 ft | 88 kts | 225° |
| 2026-05-07 21:28 | 34.82443 | -111.81549 | 5659 ft | 91 kts | 190° |
| 2026-05-07 21:29 | 34.81890 | -111.81189 | 5689 ft | 98 kts | 131° |
| 2026-05-07 21:29 | 34.81733 | -111.80442 | 5831 ft | 97 kts | 76° |
| 2026-05-07 21:29 | 34.82139 | -111.79746 | 5864 ft | 103 kts | 45° |
| 2026-05-07 21:29 | 34.82651 | -111.79122 | 5851 ft | 107 kts | 44° |
| 2026-05-07 21:30 | 34.83189 | -111.78476 | 5854 ft | 109 kts | 43° |
| 2026-05-07 21:30 | 34.83730 | -111.77819 | 5821 ft | 111 kts | 45° |
| 2026-05-07 21:30 | 34.84232 | -111.77113 | 5845 ft | 107 kts | 49° |
| 2026-05-07 21:30 | 34.84663 | -111.76480 | 5794 ft | 92 kts | 49° |
| 2026-05-07 21:31 | 34.85097 | -111.75960 | 5677 ft | 85 kts | 19° |
| 2026-05-07 21:31 | 34.85601 | -111.76151 | 5596 ft | 78 kts | 315° |
| 2026-05-07 21:31 | 34.85876 | -111.76725 | 5474 ft | 87 kts | 275° |
| 2026-05-07 21:31 | 34.85855 | -111.77476 | 5101 ft | 87 kts | 252° |
| 2026-05-07 21:32 | 34.85522 | -111.78012 | 4921 ft | 77 kts | 229° |
| 2026-05-07 21:32 | 34.85176 | -111.78449 | 4829 ft | 63 kts | 225° |
| 2026-05-07 21:32 | 34.84932 | -111.78754 | 4789 ft | 42 kts | 225° |
| 2026-05-07 21:32 | 34.84698 | -111.79042 | 4774 ft | 63 kts | 223° |
| 2026-05-07 21:33 | 34.84347 | -111.79489 | 4797 ft | 79 kts | 231° |
| 2026-05-07 21:33 | 34.83967 | -111.80006 | 4935 ft | 86 kts | 233° |
| 2026-05-07 21:33 | 34.83550 | -111.80554 | 5109 ft | 89 kts | 230° |
| 2026-05-07 21:33 | 34.83090 | -111.81050 | 5289 ft | 88 kts | 222° |
| 2026-05-07 21:34 | 34.82620 | -111.81541 | 5400 ft | 90 kts | 223° |
| 2026-05-07 21:34 | 34.82087 | -111.81888 | 5568 ft | 89 kts | 179° |
| 2026-05-07 21:34 | 34.81577 | -111.81442 | 5654 ft | 96 kts | 119° |
| 2026-05-07 21:34 | 34.81589 | -111.80687 | 5806 ft | 94 kts | 57° |
| 2026-05-07 21:35 | 34.82041 | -111.80039 | 5791 ft | 103 kts | 46° |
| 2026-05-07 21:35 | 34.82523 | -111.79398 | 5828 ft | 103 kts | 47° |
| 2026-05-07 21:35 | 34.83016 | -111.78757 | 5824 ft | 106 kts | 45° |
| 2026-05-07 21:35 | 34.83545 | -111.78122 | 5811 ft | 108 kts | 45° |
| 2026-05-07 21:36 | 34.84054 | -111.77443 | 5852 ft | 108 kts | 48° |
| 2026-05-07 21:36 | 34.84528 | -111.76816 | 5833 ft | 94 kts | 45° |
| 2026-05-07 21:36 | 34.84968 | -111.76263 | 5729 ft | 88 kts | 34° |
| 2026-05-07 21:36 | 34.85519 | -111.76253 | 5633 ft | 81 kts | 322° |
| 2026-05-07 21:37 | 34.85894 | -111.76709 | 5466 ft | 79 kts | 295° |
| 2026-05-07 21:37 | 34.85897 | -111.77381 | 5167 ft | 83 kts | 255° |
| 2026-05-07 21:37 | 34.85591 | -111.77922 | 4934 ft | 71 kts | 229° |
| 2026-05-07 21:37 | 34.85244 | -111.78362 | 4840 ft | 70 kts | 228° |
| 2026-05-07 21:38 | 34.84965 | -111.78716 | 4793 ft | 49 kts | 227° |
| 2026-05-07 21:38 | 34.84649 | -111.79106 | 4779 ft | 77 kts | 231° |
| 2026-05-07 21:38 | 34.84261 | -111.79605 | 4887 ft | 82 kts | 231° |
| 2026-05-07 21:38 | 34.83867 | -111.80132 | 5087 ft | 85 kts | 230° |
| 2026-05-07 21:39 | 34.83425 | -111.80646 | 5249 ft | 90 kts | 225° |
| 2026-05-07 21:39 | 34.82958 | -111.81161 | 5407 ft | 91 kts | 226° |
| 2026-05-07 21:39 | 34.82455 | -111.81623 | 5531 ft | 92 kts | 204° |
| 2026-05-07 21:39 | 34.81863 | -111.81442 | 5597 ft | 97 kts | 133° |
| 2026-05-07 21:40 | 34.81562 | -111.80764 | 5768 ft | 94 kts | 83° |
| 2026-05-07 21:40 | 34.81929 | -111.80082 | 5795 ft | 103 kts | 45° |
| 2026-05-07 21:40 | 34.82437 | -111.79456 | 5820 ft | 105 kts | 44° |
| 2026-05-07 21:40 | 34.82961 | -111.78829 | 5836 ft | 107 kts | 44° |
| 2026-05-07 21:41 | 34.83493 | -111.78192 | 5851 ft | 106 kts | 44° |
| 2026-05-07 21:41 | 34.84013 | -111.77528 | 5863 ft | 108 kts | 45° |
| 2026-05-07 21:41 | 34.84499 | -111.76910 | 5860 ft | 91 kts | 44° |
| 2026-05-07 21:41 | 34.84940 | -111.76382 | 5784 ft | 89 kts | 42° |
| 2026-05-07 21:42 | 34.85422 | -111.75929 | 5697 ft | 85 kts | 3° |
| 2026-05-07 21:42 | 34.85907 | -111.76261 | 5586 ft | 87 kts | 310° |
| 2026-05-07 21:42 | 34.86190 | -111.76895 | 5443 ft | 88 kts | 262° |
| 2026-05-07 21:42 | 34.85890 | -111.77537 | 5231 ft | 86 kts | 228° |
| 2026-05-07 21:43 | 34.85499 | -111.78043 | 4967 ft | 79 kts | 227° |
| 2026-05-07 21:43 | 34.85144 | -111.78488 | 4815 ft | 63 kts | 227° |
| 2026-05-07 21:43 | 34.84902 | -111.78788 | 4786 ft | 27 kts | 225° |
| 2026-05-07 21:43 | 34.84891 | -111.78873 | 4784 ft | 9 kts | 315° |
| 2026-05-07 21:44 | 34.84894 | -111.78876 | 4784 ft | 0 kts | 313° |
| 2026-05-07 21:45 | 34.84894 | -111.78877 | 4784 ft | 1 kts | 314° |
| 2026-05-07 21:45 | 34.84905 | -111.78888 | 4785 ft | 2 kts | 318° |
| 2026-05-07 21:45 | 34.84929 | -111.78918 | 4785 ft | 4 kts | 315° |
| 2026-05-07 21:46 | 34.84941 | -111.78930 | 4786 ft | 4 kts | 318° |
| 2026-05-07 21:46 | 34.84940 | -111.78978 | 4787 ft | 9 kts | 222° |
| 2026-05-07 21:46 | 34.84919 | -111.78980 | 4785 ft | 0 kts | 140° |
| 2026-05-07 21:46 | 34.84914 | -111.78975 | 4784 ft | 0 kts | 138° |
| 2026-05-07 21:47 | 34.84912 | -111.78973 | 4784 ft | 0 kts | 137° |
| 2026-05-07 21:47 | 34.84911 | -111.78973 | 4784 ft | 0 kts | 138° |
| 2026-05-07 21:48 | 34.84912 | -111.78973 | 4784 ft | 0 kts | 138° |
| 2026-05-07 22:00 | 34.84914 | -111.78953 | 4784 ft | 4 kts | 43° |
| 2026-05-07 22:00 | 34.84922 | -111.78944 | 4785 ft | 0 kts | 18° |
| 2026-05-07 22:00 | 34.84919 | -111.78945 | 4785 ft | 2 kts | 15° |
| 2026-05-07 22:00 | 34.84911 | -111.78941 | 4784 ft | 1 kts | 312° |
| 2026-05-07 22:01 | 34.84908 | -111.78936 | 4784 ft | 0 kts | 317° |
| 2026-05-07 22:01 | 34.84908 | -111.78937 | 4784 ft | 0 kts | 317° |
| 2026-05-07 22:01 | 34.84909 | -111.78938 | 4784 ft | 0 kts | 317° |